NCAR-RAP Real-Time Weather Data

Output produced by METARs form (10 April 2020  06:42 UTC)
found at http://weather.rap.ucar.edu/surface/
 
KCAR 100618Z AUTO 06011G19KT 1/4SM +SN FG VV004 00/M02 A2908 RMK AO2 P0004 T00001017